| time (UTC) | temp F | wind direction | speed knots | gust knots | rain 1hr in | rain 24hr in | rain mn in | humidity % | barometer mb |
| 20260509201739 | 67 | 201 | 0.0 | 0.0 | 0.00 | 0.20 | 0.20 | 69 | 1009.2 |
| 20260509201236 | 68 | 209 | 1.7 | 2.6 | 0.00 | 0.20 | 0.20 | 68 | 1009.1 |
| 20260509200732 | 67 | 189 | 1.7 | 4.3 | 0.00 | 0.20 | 0.20 | 71 | 1009.1 |
| 20260509200227 | 65 | 192 | 0.9 | 0.9 | 0.00 | 0.20 | 0.20 | 72 | 1009.1 |
| 20260509195724 | 66 | 299 | 2.6 | 4.3 | 0.00 | 0.20 | 0.20 | 71 | 1009.1 |
| 20260509195218 | 66 | 155 | 1.7 | 1.7 | 0.00 | 0.20 | 0.20 | 70 | 1009.2 |
| 20260509194713 | 64 | 205 | 3.5 | 4.3 | 0.00 | 0.20 | 0.20 | 72 | 1009.1 |
| 20260509194210 | 65 | 204 | 2.6 | 6.1 | 0.00 | 0.20 | 0.20 | 71 | 1009.4 |
| 20260509193707 | 66 | 285 | 1.7 | 2.6 | 0.00 | 0.20 | 0.20 | 73 | 1009.3 |
| 20260509193206 | 66 | 224 | 1.7 | 1.7 | 0.00 | 0.20 | 0.20 | 71 | 1009.3 |
| 20260509192703 | 68 | 205 | 0.9 | 0.9 | 0.00 | 0.20 | 0.20 | 68 | 1009.5 |
| 20260509192158 | 67 | 286 | 1.7 | 1.7 | 0.00 | 0.20 | 0.20 | 71 | 1009.5 |
| 20260509191654 | 65 | 176 | 0.9 | 0.9 | 0.00 | 0.20 | 0.20 | 73 | 1009.7 |
| 20260509191150 | 66 | 187 | 4.3 | 5.2 | 0.00 | 0.20 | 0.20 | 72 | 1009.6 |
| 20260509190646 | 65 | 254 | 2.6 | 2.6 | 0.00 | 0.20 | 0.20 | 72 | 1009.6 |
| 20260509190144 | 66 | 218 | 0.9 | 1.7 | 0.00 | 0.20 | 0.20 | 74 | 1009.6 |
| 20260509185642 | 66 | 253 | 2.6 | 4.3 | 0.00 | 0.20 | 0.20 | 73 | 1009.7 |
| 20260509185137 | 64 | 235 | 3.5 | 5.2 | 0.00 | 0.20 | 0.20 | 76 | 1009.8 |
| 20260509184636 | 64 | 205 | 0.9 | 1.7 | 0.00 | 0.20 | 0.20 | 75 | 1009.8 |
| 20260509184132 | 63 | 205 | 0.0 | 0.0 | 0.00 | 0.20 | 0.20 | 80 | 1009.9 |
| 20260509183628 | 63 | 212 | 4.3 | 6.1 | 0.00 | 0.20 | 0.20 | 78 | 1009.8 |
| 20260509183124 | 61 | 215 | 1.7 | 1.7 | 0.00 | 0.20 | 0.20 | 82 | 1010.0 |
| 20260509182620 | 60 | 200 | 0.0 | 0.9 | 0.00 | 0.20 | 0.20 | 84 | 1010.0 |
| 20260509182117 | 60 | 187 | 2.6 | 2.6 | 0.00 | 0.20 | 0.20 | 83 | 1010.3 |
| 20260509181615 | 60 | 253 | 0.0 | 0.0 | 0.00 | 0.20 | 0.20 | 84 | 1010.0 |
| 20260509181112 | 60 | 199 | 0.9 | 0.9 | 0.00 | 0.20 | 0.20 | 83 | 1010.1 |
| 20260509180609 | 60 | 195 | 0.9 | 1.7 | 0.00 | 0.20 | 0.20 | 82 | 1010.3 |
| 20260509180106 | 61 | 203 | 1.7 | 2.6 | 0.00 | 0.20 | 0.20 | 82 | 1010.1 |
| 20260509175601 | 62 | 226 | 2.6 | 4.3 | 0.00 | 0.20 | 0.20 | 80 | 1010.0 |
| 20260509175058 | 62 | 243 | 0.9 | 1.7 | 0.00 | 0.20 | 0.20 | 81 | 1010.0 |
| 20260509174554 | 61 | 267 | 2.6 | 5.2 | 0.00 | 0.20 | 0.20 | 81 | 1010.2 |
| 20260509174049 | 62 | 215 | 1.7 | 1.7 | 0.00 | 0.20 | 0.20 | 81 | 1010.0 |
| 20260509173544 | 62 | 190 | 2.6 | 4.3 | 0.00 | 0.20 | 0.20 | 80 | 1010.0 |
| 20260509173041 | 62 | 206 | 0.9 | 0.9 | 0.00 | 0.20 | 0.20 | 83 | 1010.0 |
| 20260509172538 | 60 | 199 | 0.0 | 0.0 | 0.00 | 0.20 | 0.20 | 84 | 1009.9 |
| 20260509172033 | 60 | 218 | 0.9 | 0.9 | 0.00 | 0.20 | 0.20 | 85 | 1010.0 |
| 20260509171529 | 60 | 194 | 0.9 | 1.7 | 0.00 | 0.20 | 0.20 | 84 | 1010.0 |
| 20260509171026 | 61 | 192 | 0.9 | 0.9 | 0.00 | 0.20 | 0.20 | 83 | 1009.8 |
| 20260509170522 | 60 | 203 | 0.9 | 0.9 | 0.00 | 0.20 | 0.20 | 86 | 1009.8 |
| 20260509170018 | 60 | 210 | 0.9 | 1.7 | 0.00 | 0.20 | 0.20 | 88 | 1009.9 |
| 20260509165517 | 60 | 211 | 2.6 | 2.6 | 0.00 | 0.20 | 0.20 | 86 | 1010.0 |
| 20260509165012 | 60 | 192 | 1.7 | 1.7 | 0.00 | 0.20 | 0.20 | 89 | 1009.8 |
| 20260509164509 | 59 | 201 | 0.9 | 1.7 | 0.00 | 0.20 | 0.20 | 91 | 1009.8 |
| 20260509164004 | 59 | 175 | 1.7 | 1.7 | 0.00 | 0.20 | 0.20 | 91 | 1009.8 |
| 20260509163502 | 58 | 194 | 1.7 | 2.6 | 0.00 | 0.20 | 0.20 | 91 | 1009.8 |
| 20260509163002 | 59 | 196 | 0.9 | 0.9 | 0.00 | 0.20 | 0.20 | 92 | 1009.9 |
| 20260509162500 | 58 | 220 | 0.0 | 0.9 | 0.00 | 0.20 | 0.20 | 95 | 1009.9 |
| 20260509161956 | 57 | 224 | 0.0 | 0.9 | 0.00 | 0.20 | 0.20 | 95 | 1009.8 |
| 20260509161452 | 56 | 195 | 0.9 | 1.7 | 0.00 | 0.20 | 0.20 | 96 | 1010.1 |
| 20260509160947 | 55 | 215 | 0.0 | 0.9 | 0.00 | 0.20 | 0.20 | 97 | 1009.9 |
| 20260509160444 | 55 | 195 | 0.9 | 0.9 | 0.05 | 0.20 | 0.20 | 96 | 1009.9 |
| 20260509155938 | 55 | 201 | 0.0 | 0.0 | 0.05 | 0.20 | 0.20 | 96 | 1009.9 |
| 20260509155436 | 55 | 198 | 0.0 | 0.0 | 0.00 | 0.19 | 0.19 | 96 | 1009.9 |
| 20260509154932 | 55 | 212 | 2.6 | 5.2 | 0.00 | 0.19 | 0.19 | 95 | 1009.8 |
| 20260509154428 | 56 | 203 | 0.0 | 0.0 | 0.00 | 0.19 | 0.19 | 96 | 1009.6 |
| 20260509153926 | 55 | 196 | 0.0 | 0.0 | 0.00 | 0.19 | 0.19 | 96 | 1009.7 |
| 20260509153422 | 55 | 219 | 0.9 | 0.9 | 0.00 | 0.19 | 0.19 | 97 | 1009.6 |
| 20260509152920 | 54 | 203 | 0.9 | 1.7 | 0.00 | 0.19 | 0.19 | 97 | 1009.5 |
| 20260509152415 | 54 | 202 | 0.9 | 0.9 | 0.00 | 0.19 | 0.19 | 97 | 1009.7 |
| 20260509151912 | 54 | 201 | 0.0 | 0.0 | 0.00 | 0.19 | 0.19 | 97 | 1009.8 |
| 20260509151408 | 54 | 213 | 0.0 | 0.9 | 0.00 | 0.19 | 0.19 | 98 | 1009.7 |
| 20260509150907 | 54 | 191 | 0.9 | 0.9 | 0.00 | 0.19 | 0.19 | 98 | 1009.9 |
| 20260509150404 | 54 | 203 | 0.0 | 0.0 | 0.00 | 0.19 | 0.19 | 98 | 1009.8 |
| 20260509145903 | 54 | 206 | 0.9 | 0.9 | 0.00 | 0.19 | 0.19 | 98 | 1009.9 |
| 20260509145402 | 54 | 193 | 0.9 | 0.9 | 0.00 | 0.19 | 0.19 | 98 | 1009.7 |
| 20260509144858 | 54 | 190 | 0.9 | 1.7 | 0.00 | 0.19 | 0.19 | 98 | 1009.9 |
| 20260509144355 | 54 | 199 | 0.0 | 0.0 | 0.00 | 0.19 | 0.19 | 99 | 1009.7 |
| 20260509143852 | 53 | 202 | 0.0 | 0.0 | 0.00 | 0.19 | 0.19 | 99 | 1009.7 |
| 20260509143349 | 53 | 203 | 0.0 | 0.0 | 0.00 | 0.19 | 0.19 | 99 | 1009.8 |
| 20260509142846 | 53 | 184 | 0.0 | 0.9 | 0.00 | 0.19 | 0.19 | 99 | 1009.8 |
| 20260509142342 | 53 | 200 | 0.0 | 0.0 | 0.00 | 0.19 | 0.19 | 99 | 1009.9 |
| 20260509141838 | 53 | 197 | 0.9 | 1.7 | 0.00 | 0.19 | 0.19 | 99 | 1009.7 |
| 20260509141335 | 53 | 203 | 0.0 | 0.9 | 0.00 | 0.19 | 0.19 | 99 | 1009.8 |
| 20260509140831 | 52 | 202 | 0.9 | 0.9 | 0.00 | 0.19 | 0.19 | 99 | 1009.9 |
| 20260509140328 | 52 | 211 | 0.9 | 1.7 | 0.07 | 0.19 | 0.19 | 99 | 1009.8 |
| 20260509135827 | 52 | 179 | 0.9 | 0.9 | 0.07 | 0.19 | 0.19 | 99 | 1009.8 |
| 20260509135324 | 52 | 191 | 0.9 | 0.9 | 0.12 | 0.19 | 0.19 | 99 | 1009.8 |
| 20260509134821 | 52 | 209 | 0.0 | 0.9 | 0.05 | 0.18 | 0.18 | 99 | 1010.0 |
| 20260509134318 | 52 | 200 | 0.0 | 0.9 | 0.00 | 0.17 | 0.17 | 99 | 1009.8 |
| 20260509133815 | 52 | 201 | 0.9 | 0.9 | 0.00 | 0.17 | 0.17 | 99 | 1009.9 |
| 20260509133311 | 52 | 197 | 0.0 | 0.0 | 0.07 | 0.17 | 0.17 | 99 | 1009.9 |
| 20260509132810 | 52 | 196 | 0.9 | 0.9 | 0.07 | 0.17 | 0.17 | 99 | 1009.9 |
| 20260509132308 | 52 | 188 | 0.9 | 0.9 | 0.12 | 0.17 | 0.17 | 99 | 1010.0 |
| 20260509131804 | 52 | 176 | 0.9 | 0.9 | 0.05 | 0.16 | 0.16 | 99 | 1010.2 |
| 20260509131301 | 52 | 185 | 0.9 | 0.9 | 0.07 | 0.15 | 0.15 | 99 | 1010.1 |
| 20260509130758 | 52 | 200 | 0.9 | 1.7 | 0.07 | 0.15 | 0.15 | 99 | 1010.1 |
| 20260509130253 | 52 | 193 | 0.9 | 0.9 | 0.00 | 0.14 | 0.14 | 99 | 1010.1 |
| 20260509125750 | 52 | 196 | 0.0 | 0.0 | 0.00 | 0.14 | 0.14 | 99 | 1010.1 |
| 20260509125247 | 52 | 199 | 0.9 | 0.9 | 0.07 | 0.14 | 0.14 | 99 | 1010.1 |
| 20260509124744 | 52 | 202 | 0.0 | 0.0 | 0.07 | 0.14 | 0.14 | 99 | 1010.2 |
| 20260509124240 | 52 | 201 | 0.0 | 0.9 | 0.12 | 0.14 | 0.14 | 99 | 1010.0 |
| 20260509123738 | 51 | 199 | 0.9 | 0.9 | 0.12 | 0.13 | 0.13 | 99 | 1010.2 |
| 20260509123235 | 51 | 201 | 0.0 | 0.0 | 0.12 | 0.12 | 0.12 | 99 | 1010.3 |
| 20260509122731 | 51 | 201 | 0.0 | 0.0 | 0.05 | 0.11 | 0.11 | 99 | 1010.2 |
| 20260509122228 | 51 | 198 | 0.0 | 0.9 | 0.07 | 0.10 | 0.10 | 99 | 1010.1 |
| 20260509121725 | 51 | 203 | 1.7 | 2.6 | 0.12 | 0.10 | 0.10 | 99 | 1010.3 |
| 20260509121222 | 51 | 199 | 0.0 | 0.0 | 0.12 | 0.09 | 0.09 | 99 | 1010.2 |
| 20260509120720 | 51 | 209 | 0.9 | 0.9 | 0.12 | 0.08 | 0.08 | 99 | 1010.2 |
| 20260509120218 | 51 | 195 | 0.0 | 0.0 | 0.12 | 0.07 | 0.07 | 99 | 1010.2 |
| 20260509115715 | 51 | 200 | 0.0 | 0.0 | 0.07 | 0.06 | 0.06 | 99 | 1010.1 |
| 20260509115213 | 51 | 218 | 0.0 | 0.9 | 0.05 | 0.05 | 0.05 | 99 | 1010.1 |
| 20260509114711 | 51 | 200 | 0.9 | 0.9 | 0.12 | 0.05 | 0.05 | 98 | 1010.1 |
| 20260509114209 | 51 | 201 | 0.0 | 0.0 | 0.07 | 0.04 | 0.04 | 98 | 1009.9 |
| 20260509113708 | 51 | 199 | 0.0 | 0.9 | 0.00 | 0.03 | 0.03 | 98 | 1009.9 |
| 20260509113204 | 51 | 184 | 0.0 | 0.9 | 0.00 | 0.03 | 0.03 | 98 | 1010.0 |
| 20260509112701 | 51 | 198 | 0.0 | 0.0 | 0.00 | 0.03 | 0.03 | 98 | 1009.8 |
| 20260509112158 | 51 | 210 | 0.9 | 0.9 | 0.00 | 0.03 | 0.03 | 98 | 1009.8 |
| 20260509111655 | 51 | 200 | 0.0 | 0.9 | 0.00 | 0.03 | 0.03 | 98 | 1010.0 |
| 20260509111152 | 51 | 194 | 0.9 | 0.9 | 0.00 | 0.03 | 0.03 | 99 | 1010.0 |
| 20260509110649 | 51 | 199 | 0.9 | 1.7 | 0.00 | 0.03 | 0.03 | 99 | 1009.6 |
| 20260509110146 | 51 | 200 | 0.0 | 0.0 | 0.00 | 0.03 | 0.03 | 99 | 1009.9 |
| 20260509105644 | 51 | 185 | 0.9 | 0.9 | 0.05 | 0.03 | 0.03 | 99 | 1009.8 |
| 20260509105141 | 50 | 178 | 0.0 | 0.9 | 0.05 | 0.03 | 0.03 | 99 | 1009.9 |
| 20260509104638 | 50 | 199 | 0.0 | 0.0 | 0.00 | 0.02 | 0.02 | 99 | 1010.0 |
| 20260509104135 | 50 | 200 | 0.0 | 0.0 | 0.00 | 0.02 | 0.02 | 99 | 1010.0 |
| 20260509103633 | 50 | 195 | 0.0 | 0.0 | 0.00 | 0.02 | 0.02 | 99 | 1009.8 |
| 20260509103130 | 50 | 188 | 0.0 | 0.0 | 0.00 | 0.02 | 0.02 | 99 | 1009.9 |
| 20260509102628 | 50 | 193 | 0.0 | 0.0 | 0.00 | 0.02 | 0.02 | 99 | 1009.9 |
| 20260509102125 | 50 | 200 | 0.0 | 0.9 | 0.00 | 0.02 | 0.02 | 99 | 1009.8 |
| 20260509101621 | 49 | 199 | 0.0 | 0.0 | 0.00 | 0.02 | 0.02 | 99 | 1009.7 |
| 20260509101118 | 49 | 202 | 0.0 | 0.0 | 0.00 | 0.02 | 0.02 | 99 | 1009.7 |
| 20260509100615 | 49 | 201 | 0.0 | 0.0 | 0.00 | 0.02 | 0.02 | 99 | 1009.9 |
| 20260509100112 | 49 | 207 | 0.0 | 0.0 | 0.00 | 0.02 | 0.02 | 99 | 1010.1 |
| 20260509095608 | 49 | 198 | 0.0 | 0.0 | 0.07 | 0.02 | 0.02 | 99 | 1009.9 |
| 20260509095106 | 49 | 204 | 0.0 | 0.0 | 0.07 | 0.02 | 0.02 | 99 | 1010.1 |
| 20260509094602 | 49 | 199 | 0.0 | 0.0 | 0.07 | 0.02 | 0.02 | 99 | 1010.0 |
| 20260509094100 | 49 | 197 | 0.0 | 0.0 | 0.00 | 0.01 | 0.01 | 99 | 1010.1 |
| 20260509093558 | 48 | 197 | 0.0 | 0.0 | 0.00 | 0.01 | 0.01 | 99 | 1010.1 |
| 20260509093055 | 49 | 197 | 0.0 | 0.0 | 0.00 | 0.01 | 0.01 | 99 | 1010.2 |
| 20260509092552 | 49 | 195 | 0.0 | 0.0 | 0.00 | 0.01 | 0.01 | 99 | 1010.3 |
| 20260509092051 | 49 | 200 | 0.0 | 0.0 | 0.00 | 0.01 | 0.01 | 99 | 1010.5 |
| 20260509091548 | 49 | 197 | 0.0 | 0.0 | 0.00 | 0.01 | 0.01 | 99 | 1010.4 |
| 20260509091045 | 49 | 199 | 0.0 | 0.0 | 0.07 | 0.01 | 0.01 | 99 | 1010.3 |
| 20260509090542 | 49 | 201 | 0.0 | 0.0 | 0.07 | 0.01 | 0.01 | 99 | 1010.3 |
| 20260509090040 | 49 | 199 | 0.0 | 0.0 | 0.00 | 0.00 | 0.00 | 99 | 1010.2 |
| 20260509085537 | 48 | 198 | 0.0 | 0.0 | 0.00 | 0.00 | 0.00 | 99 | 1010.2 |
| 20260509085033 | 49 | 199 | 0.0 | 0.0 | 0.00 | 0.00 | 0.00 | 99 | 1010.3 |
| 20260509084530 | 49 | 200 | 0.0 | 0.0 | 0.00 | 0.00 | 0.00 | 99 | 1010.3 |
| 20260509084027 | 49 | 199 | 0.0 | 0.0 | 0.00 | 0.00 | 0.00 | 99 | 1010.3 |
| 20260509083524 | 49 | 200 | 0.0 | 0.0 | 0.00 | 0.00 | 0.00 | 99 | 1010.3 |
| 20260509083021 | 49 | 199 | 0.0 | 0.0 | 0.00 | 0.00 | 0.00 | 99 | 1010.1 |
| 20260509082519 | 49 | 186 | 0.0 | 0.0 | 0.00 | 0.00 | 0.00 | 99 | 1010.3 |
| 20260509082015 | 49 | 200 | 0.0 | 0.0 | 0.00 | 0.00 | 0.00 | 99 | 1010.2 |
| 20260509081513 | 49 | 200 | 0.0 | 0.0 | 0.00 | 0.00 | 0.00 | 99 | 1010.4 |
| 20260509081009 | 48 | 198 | 0.0 | 0.0 | 0.00 | 0.00 | 0.00 | 99 | 1010.4 |
| 20260509080508 | 48 | 198 | 0.0 | 0.0 | 0.00 | 0.00 | 0.00 | 99 | 1010.3 |
| 20260509080005 | 48 | 208 | 0.0 | 0.0 | 0.00 | 0.00 | 0.00 | 99 | 1010.2 |
| 20260509075502 | 48 | 199 | 0.0 | 0.0 | 0.00 | 0.00 | 0.00 | 99 | 1010.3 |
| 20260509075000 | 48 | 201 | 0.0 | 0.0 | 0.00 | 0.00 | 0.00 | 99 | 1010.2 |
| 20260509074457 | 48 | 197 | 0.0 | 0.0 | 0.00 | 0.00 | 0.00 | 99 | 1010.1 |
| 20260509073953 | 48 | 198 | 0.0 | 0.0 | 0.00 | 0.00 | 0.00 | 99 | 1010.2 |
| 20260509073450 | 48 | 200 | 0.0 | 0.0 | 0.00 | 0.00 | 0.00 | 99 | 1010.1 |
| 20260509072946 | 48 | 198 | 0.0 | 0.0 | 0.00 | 0.00 | 0.00 | 99 | 1009.9 |
| 20260509072443 | 48 | 198 | 0.0 | 0.0 | 0.00 | 0.00 | 0.00 | 99 | 1010.0 |
| 20260509071940 | 48 | 198 | 0.0 | 0.0 | 0.00 | 0.00 | 0.00 | 99 | 1009.9 |
| 20260509071436 | 48 | 199 | 0.0 | 0.0 | 0.00 | 0.00 | 0.00 | 99 | 1010.0 |
| 20260509070934 | 48 | 199 | 0.0 | 0.0 | 0.00 | 0.00 | 0.00 | 99 | 1009.9 |
| 20260509070431 | 48 | 199 | 0.0 | 0.0 | 0.00 | 0.00 | 0.00 | 99 | 1010.0 |
| 20260509065926 | 48 | 198 | 0.0 | 0.0 | 0.00 | 0.00 | 0.00 | 99 | 1010.0 |
| 20260509065423 | 48 | 199 | 0.0 | 0.0 | 0.00 | 0.00 | 0.00 | 99 | 1010.2 |
| 20260509064919 | 48 | 198 | 0.0 | 0.0 | 0.00 | 0.00 | 0.00 | 99 | 1010.4 |
| 20260509064417 | 48 | 199 | 0.0 | 0.0 | 0.00 | 0.00 | 0.00 | 99 | 1010.4 |
| 20260509063914 | 48 | 199 | 0.0 | 0.0 | 0.00 | 0.00 | 0.00 | 99 | 1010.6 |
| 20260509063410 | 48 | 193 | 0.0 | 0.0 | 0.00 | 0.00 | 0.00 | 99 | 1010.4 |
| 20260509062907 | 48 | 201 | 0.0 | 0.0 | 0.00 | 0.00 | 0.00 | 99 | 1010.5 |
| 20260509062404 | 48 | 201 | 0.0 | 0.0 | 0.00 | 0.00 | 0.00 | 99 | 1010.5 |
| 20260509061902 | 48 | 201 | 0.0 | 0.0 | 0.00 | 0.00 | 0.00 | 99 | 1010.5 |
| 20260509061400 | 48 | 199 | 0.0 | 0.0 | 0.00 | 0.00 | 0.00 | 99 | 1010.9 |
| 20260509060856 | 48 | 199 | 0.0 | 0.0 | 0.00 | 0.00 | 0.00 | 99 | 1010.8 |
| 20260509060353 | 48 | 200 | 0.0 | 0.0 | 0.00 | 0.00 | 0.00 | 99 | 1011.0 |
| 20260509055848 | 48 | 198 | 0.0 | 0.0 | 0.00 | 0.00 | 0.00 | 99 | 1010.8 |
| 20260509055344 | 48 | 198 | 0.0 | 0.0 | 0.00 | 0.00 | 0.00 | 99 | 1010.9 |
| 20260509054841 | 48 | 199 | 0.0 | 0.0 | 0.00 | 0.00 | 0.00 | 99 | 1011.1 |
| 20260509054338 | 48 | 199 | 0.0 | 0.0 | 0.00 | 0.00 | 0.00 | 99 | 1011.1 |
| 20260509053836 | 48 | 199 | 0.0 | 0.0 | 0.00 | 0.00 | 0.00 | 99 | 1011.3 |
| 20260509053333 | 48 | 194 | 0.0 | 0.0 | 0.00 | 0.00 | 0.00 | 99 | 1011.3 |
| 20260509052832 | 48 | 193 | 0.0 | 0.0 | 0.00 | 0.00 | 0.00 | 99 | 1011.5 |
| 20260509052329 | 48 | 200 | 0.0 | 0.0 | 0.00 | 0.00 | 0.00 | 99 | 1011.2 |
| 20260509051826 | 48 | 200 | 0.0 | 0.0 | 0.00 | 0.00 | 0.00 | 99 | 1011.4 |
| 20260509051324 | 48 | 198 | 0.0 | 0.0 | 0.00 | 0.00 | 0.00 | 99 | 1011.1 |
| 20260509050820 | 49 | 196 | 0.0 | 0.0 | 0.00 | 0.00 | 0.00 | 99 | 1011.4 |
| 20260509050317 | 49 | 198 | 0.0 | 0.0 | 0.00 | 0.00 | 0.00 | 99 | 1011.6 |
| 20260509045814 | 49 | 197 | 0.0 | 0.0 | 0.00 | 0.00 | 0.00 | 99 | 1011.5 |
| 20260509045311 | 49 | 201 | 0.0 | 0.0 | 0.00 | 0.00 | 0.00 | 99 | 1011.6 |
| 20260509044809 | 49 | 201 | 0.0 | 0.0 | 0.00 | 0.00 | 0.00 | 99 | 1011.5 |
| 20260509044306 | 49 | 202 | 0.0 | 0.0 | 0.00 | 0.00 | 0.00 | 99 | 1011.5 |
| 20260509043802 | 49 | 198 | 0.0 | 0.0 | 0.00 | 0.00 | 0.00 | 99 | 1011.5 |
| 20260509043258 | 49 | 197 | 0.0 | 0.0 | 0.00 | 0.00 | 0.00 | 99 | 1011.7 |
| 20260509042754 | 49 | 200 | 0.0 | 0.0 | 0.00 | 0.00 | 0.00 | 99 | 1012.1 |
| 20260509042251 | 49 | 197 | 0.0 | 0.0 | 0.00 | 0.00 | 0.00 | 99 | 1011.8 |
| 20260509041748 | 49 | 192 | 0.0 | 0.0 | 0.00 | 0.00 | 0.00 | 99 | 1012.0 |
| 20260509041245 | 49 | 195 | 0.0 | 0.0 | 0.00 | 0.00 | 0.00 | 99 | 1012.2 |
| 20260509040743 | 49 | 197 | 0.0 | 0.0 | 0.00 | 0.00 | 0.00 | 99 | 1012.3 |
| 20260509040240 | 49 | 196 | 0.0 | 0.0 | 0.00 | 0.00 | 0.00 | 99 | 1012.4 |
| 20260509035737 | 49 | 199 | 0.0 | 0.0 | 0.00 | 0.04 | 0.04 | 99 | 1012.4 |
| 20260509035233 | 49 | 198 | 0.0 | 0.0 | 0.00 | 0.04 | 0.04 | 99 | 1012.7 |
| 20260509034731 | 49 | 197 | 0.0 | 0.0 | 0.00 | 0.04 | 0.04 | 99 | 1012.5 |
| 20260509034228 | 50 | 197 | 0.0 | 0.0 | 0.00 | 0.04 | 0.04 | 99 | 1012.7 |
| 20260509033725 | 50 | 198 | 0.0 | 0.0 | 0.00 | 0.04 | 0.04 | 99 | 1012.8 |
| 20260509033222 | 50 | 195 | 0.0 | 0.0 | 0.00 | 0.04 | 0.04 | 99 | 1012.8 |
| 20260509032719 | 50 | 205 | 0.0 | 0.0 | 0.05 | 0.04 | 0.04 | 99 | 1012.8 |
| 20260509032216 | 50 | 198 | 0.0 | 0.0 | 0.05 | 0.04 | 0.04 | 99 | 1013.0 |
| 20260509031714 | 50 | 197 | 0.0 | 0.0 | 0.00 | 0.03 | 0.03 | 99 | 1013.0 |
| 20260509031211 | 50 | 194 | 0.0 | 0.9 | 0.00 | 0.03 | 0.03 | 99 | 1013.2 |
| 20260509030709 | 50 | 198 | 0.0 | 0.0 | 0.00 | 0.03 | 0.03 | 98 | 1013.2 |
| 20260509030206 | 50 | 196 | 0.0 | 0.0 | 0.07 | 0.03 | 0.03 | 98 | 1013.3 |
| 20260509025702 | 50 | 200 | 0.0 | 0.0 | 0.07 | 0.03 | 0.03 | 98 | 1013.4 |
| 20260509025158 | 50 | 198 | 0.0 | 0.0 | 0.07 | 0.03 | 0.03 | 98 | 1013.3 |
| 20260509024653 | 50 | 196 | 0.0 | 0.0 | 0.00 | 0.02 | 0.02 | 97 | 1013.3 |
| 20260509024149 | 51 | 198 | 0.0 | 0.0 | 0.00 | 0.02 | 0.02 | 97 | 1013.2 |
| 20260509023648 | 51 | 194 | 0.0 | 0.0 | 0.00 | 0.02 | 0.02 | 96 | 1013.3 |
| 20260509023144 | 51 | 204 | 0.0 | 0.9 | 0.00 | 0.02 | 0.02 | 96 | 1013.4 |
| 20260509022640 | 51 | 202 | 0.0 | 0.9 | 0.05 | 0.02 | 0.02 | 96 | 1013.1 |
| 20260509022138 | 51 | 178 | 0.9 | 0.9 | 0.05 | 0.02 | 0.02 | 96 | 1013.3 |
| 20260509021635 | 50 | 202 | 0.0 | 0.0 | 0.00 | 0.01 | 0.01 | 96 | 1012.7 |
| 20260509021132 | 51 | 201 | 0.0 | 0.0 | 0.00 | 0.01 | 0.01 | 96 | 1012.6 |
| 20260509020631 | 50 | 216 | 0.9 | 1.7 | 0.00 | 0.01 | 0.01 | 96 | 1012.7 |
| 20260509020127 | 51 | 193 | 0.0 | 0.0 | 0.00 | 0.01 | 0.01 | 96 | 1012.7 |
| 20260509015626 | 51 | 203 | 0.0 | 0.0 | 0.00 | 0.01 | 0.01 | 95 | 1012.6 |
| 20260509015123 | 51 | 199 | 0.0 | 0.0 | 0.00 | 0.01 | 0.01 | 95 | 1012.8 |
| 20260509014619 | 51 | 181 | 0.0 | 0.0 | 0.00 | 0.01 | 0.01 | 95 | 1012.7 |
| 20260509014116 | 51 | 203 | 0.0 | 0.0 | 0.00 | 0.01 | 0.01 | 95 | 1012.8 |
| 20260509013613 | 51 | 193 | 0.0 | 0.9 | 0.00 | 0.01 | 0.01 | 94 | 1012.8 |
| 20260509013108 | 51 | 197 | 0.0 | 0.0 | 0.00 | 0.01 | 0.01 | 94 | 1012.6 |
| 20260509012606 | 51 | 206 | 0.0 | 0.0 | 0.00 | 0.01 | 0.01 | 94 | 1012.6 |
| 20260509012102 | 51 | 195 | 0.0 | 0.0 | 0.00 | 0.01 | 0.01 | 94 | 1012.2 |
| 20260509011600 | 51 | 196 | 0.0 | 0.0 | 0.00 | 0.01 | 0.01 | 94 | 1012.2 |
| 20260509011057 | 51 | 198 | 0.0 | 0.0 | 0.00 | 0.01 | 0.01 | 93 | 1012.0 |
| 20260509010555 | 51 | 202 | 0.0 | 0.0 | 0.00 | 0.01 | 0.01 | 93 | 1012.1 |
| 20260509010051 | 51 | 200 | 0.0 | 0.0 | 0.00 | 0.01 | 0.01 | 92 | 1012.1 |
| 20260509005549 | 51 | 199 | 0.0 | 0.0 | 0.00 | 0.01 | 0.01 | 92 | 1012.2 |
| 20260509005044 | 51 | 203 | 0.0 | 0.0 | 0.00 | 0.01 | 0.01 | 92 | 1011.8 |
| 20260509004541 | 51 | 191 | 0.0 | 0.9 | 0.00 | 0.01 | 0.01 | 91 | 1011.7 |
| 20260509004038 | 52 | 200 | 0.0 | 0.0 | 0.00 | 0.01 | 0.01 | 91 | 1012.1 |
| 20260509003536 | 52 | 196 | 0.0 | 0.0 | 0.00 | 0.01 | 0.01 | 90 | 1012.0 |
| 20260509003033 | 52 | 164 | 2.6 | 2.6 | 0.00 | 0.01 | 0.01 | 88 | 1012.0 |
| 20260509002531 | 52 | 197 | 0.0 | 0.0 | 0.00 | 0.01 | 0.01 | 89 | 1011.7 |
| 20260509002028 | 51 | 199 | 0.0 | 0.0 | 0.00 | 0.01 | 0.01 | 90 | 1011.6 |
| 20260509001525 | 52 | 199 | 0.0 | 0.0 | 0.00 | 0.01 | 0.01 | 91 | 1011.7 |
| 20260509001021 | 52 | 203 | 0.0 | 0.0 | 0.00 | 0.01 | 0.01 | 90 | 1012.2 |
| 20260509000520 | 52 | 202 | 0.0 | 0.0 | 0.00 | 0.01 | 0.01 | 89 | 1012.2 |
| 20260509000015 | 52 | 186 | 0.9 | 0.9 | 0.00 | 0.01 | 0.01 | 89 | 1011.8 |
| 20260508235513 | 52 | 194 | 0.0 | 0.0 | 0.07 | 0.01 | 0.01 | 88 | 1011.6 |
| 20260508235009 | 53 | 185 | 0.9 | 0.9 | 0.07 | 0.01 | 0.01 | 88 | 1011.7 |
| 20260508234507 | 53 | 200 | 0.0 | 0.9 | 0.00 | 0.00 | 0.00 | 87 | 1011.7 |
| 20260508234004 | 53 | 193 | 0.0 | 0.0 | 0.00 | 0.00 | 0.00 | 88 | 1012.2 |
| 20260508233503 | 53 | 195 | 0.0 | 0.0 | 0.00 | 0.00 | 0.00 | 87 | 1012.4 |
| 20260508233000 | 53 | 190 | 0.0 | 0.0 | 0.00 | 0.00 | 0.00 | 87 | 1012.2 |
| 20260508232457 | 53 | 207 | 0.0 | 0.0 | 0.00 | 0.00 | 0.00 | 87 | 1012.2 |
| 20260508231954 | 54 | 201 | 0.0 | 0.0 | 0.00 | 0.00 | 0.00 | 87 | 1012.3 |
| 20260508231451 | 54 | 199 | 0.9 | 0.9 | 0.00 | 0.00 | 0.00 | 86 | 1012.0 |
| 20260508230948 | 54 | 210 | 0.9 | 0.9 | 0.00 | 0.00 | 0.00 | 85 | 1012.1 |
| 20260508230444 | 54 | 262 | 1.7 | 2.6 | 0.00 | 0.00 | 0.00 | 85 | 1012.2 |
| 20260508225941 | 54 | 194 | 0.0 | 0.0 | 0.00 | 0.00 | 0.00 | 86 | 1012.1 |
| 20260508225439 | 54 | 199 | 0.0 | 0.0 | 0.00 | 0.00 | 0.00 | 87 | 1012.0 |
| 20260508224936 | 54 | 188 | 0.0 | 0.9 | 0.00 | 0.00 | 0.00 | 86 | 1012.1 |
| 20260508224433 | 54 | 181 | 0.0 | 0.0 | 0.00 | 0.00 | 0.00 | 84 | 1012.3 |
| 20260508223930 | 54 | 16 | 0.9 | 0.9 | 0.00 | 0.00 | 0.00 | 83 | 1012.3 |
| 20260508223429 | 55 | 193 | 0.0 | 0.0 | 0.00 | 0.00 | 0.00 | 82 | 1012.4 |
| 20260508222925 | 55 | 193 | 0.0 | 0.0 | 0.00 | 0.00 | 0.00 | 82 | 1012.3 |
| 20260508222423 | 55 | 184 | 0.9 | 0.9 | 0.00 | 0.00 | 0.00 | 80 | 1012.2 |
| 20260508221919 | 55 | 132 | 0.0 | 0.9 | 0.00 | 0.00 | 0.00 | 81 | 1012.3 |
| 20260508221415 | 55 | 191 | 0.0 | 0.9 | 0.00 | 0.00 | 0.00 | 80 | 1012.3 |
| 20260508220911 | 56 | 266 | 0.0 | 0.9 | 0.00 | 0.00 | 0.00 | 79 | 1012.3 |
| 20260508220408 | 56 | 211 | 0.9 | 0.9 | 0.00 | 0.00 | 0.00 | 82 | 1012.3 |
| 20260508215904 | 56 | 186 | 0.0 | 0.0 | 0.00 | 0.00 | 0.00 | 82 | 1012.3 |
| 20260508215401 | 56 | 195 | 0.0 | 0.0 | 0.00 | 0.00 | 0.00 | 81 | 1012.3 |
| 20260508214858 | 56 | 118 | 0.9 | 0.9 | 0.00 | 0.00 | 0.00 | 80 | 1012.3 |
| 20260508214355 | 56 | 192 | 0.0 | 0.0 | 0.00 | 0.00 | 0.00 | 78 | 1012.1 |
| 20260508213851 | 56 | 202 | 0.0 | 0.0 | 0.00 | 0.00 | 0.00 | 76 | 1012.3 |
| 20260508213349 | 56 | 200 | 0.0 | 0.0 | 0.00 | 0.00 | 0.00 | 77 | 1012.1 |
| 20260508212844 | 56 | 202 | 0.0 | 0.0 | 0.00 | 0.00 | 0.00 | 76 | 1012.3 |
| 20260508212341 | 56 | 199 | 0.0 | 0.0 | 0.00 | 0.00 | 0.00 | 76 | 1012.4 |
| 20260508211837 | 56 | 199 | 0.0 | 0.0 | 0.00 | 0.00 | 0.00 | 76 | 1012.2 |
| 20260508211333 | 56 | 197 | 0.0 | 0.0 | 0.00 | 0.00 | 0.00 | 75 | 1012.3 |
| 20260508210831 | 56 | 199 | 0.0 | 0.0 | 0.00 | 0.00 | 0.00 | 76 | 1012.4 |
| 20260508210327 | 56 | 189 | 0.9 | 1.7 | 0.00 | 0.00 | 0.00 | 74 | 1012.4 |
| 20260508205818 | 56 | 193 | 0.0 | 0.0 | 0.00 | 0.00 | 0.00 | 76 | 1012.6 |
| 20260508205314 | 56 | 191 | 0.0 | 0.9 | 0.00 | 0.00 | 0.00 | 75 | 1012.5 |
| 20260508204811 | 56 | 207 | 0.0 | 0.9 | 0.00 | 0.00 | 0.00 | 75 | 1012.5 |
| 20260508204308 | 55 | 203 | 0.0 | 0.0 | 0.00 | 0.00 | 0.00 | 77 | 1012.4 |
| 20260508203804 | 55 | 200 | 0.0 | 0.0 | 0.00 | 0.00 | 0.00 | 76 | 1012.7 |
| 20260508203300 | 55 | 199 | 0.0 | 0.0 | 0.00 | 0.00 | 0.00 | 75 | 1012.7 |
| 20260508202755 | 56 | 200 | 0.0 | 0.0 | 0.00 | 0.00 | 0.00 | 75 | 1012.7 |
| 20260508202253 | 56 | 202 | 0.0 | 0.0 | 0.00 | 0.00 | 0.00 | 72 | 1012.7 |